createdAt,value
2023-02-22T00:01:23.000Z,275.77
2023-02-22T00:03:29.000Z,275.71
2023-02-22T00:04:56.000Z,275.71
2023-02-22T00:07:02.000Z,275.71
2023-02-22T00:08:28.000Z,275.71
2023-02-22T00:10:35.000Z,275.65
2023-02-22T00:13:26.000Z,275.65
2023-02-22T00:14:52.000Z,275.71
2023-02-22T00:16:58.000Z,275.77
2023-02-22T00:18:25.000Z,275.77
2023-02-22T00:20:31.000Z,275.71
2023-02-22T00:21:58.000Z,275.59
2023-02-22T00:24:04.000Z,275.52
2023-02-22T00:25:30.000Z,275.46
2023-02-22T00:27:37.000Z,275.59
2023-02-22T00:29:03.000Z,275.65
2023-02-22T00:31:09.000Z,275.52
2023-02-22T00:32:36.000Z,275.4
2023-02-22T00:34:42.000Z,275.52
2023-02-22T00:36:08.000Z,275.46
2023-02-22T00:38:15.000Z,275.46
2023-02-22T00:39:41.000Z,275.46
2023-02-22T00:41:47.000Z,275.4
2023-02-22T00:43:14.000Z,275.4
2023-02-22T00:45:20.000Z,275.46
2023-02-22T00:46:52.000Z,275.46
2023-02-22T00:48:58.000Z,275.52
2023-02-22T00:51:49.000Z,275.52
2023-02-22T00:53:16.000Z,275.52
2023-02-22T00:55:22.000Z,275.52
2023-02-22T00:56:48.000Z,275.46
2023-02-22T00:58:54.000Z,275.4
2023-02-22T01:00:21.000Z,275.4
2023-02-22T01:02:27.000Z,275.52
2023-02-22T01:03:54.000Z,275.59
2023-02-22T01:06:00.000Z,275.52
2023-02-22T01:07:26.000Z,275.59
2023-02-22T01:09:32.000Z,275.59
2023-02-22T01:10:59.000Z,275.59
2023-02-22T01:13:05.000Z,275.59
2023-02-22T01:14:32.000Z,275.65
2023-02-22T01:16:38.000Z,275.59
2023-02-22T01:18:04.000Z,275.59
2023-02-22T01:20:10.000Z,275.46
2023-02-22T01:21:37.000Z,275.46
2023-02-22T01:23:43.000Z,275.46
2023-02-22T01:25:10.000Z,275.4
2023-02-22T01:27:16.000Z,275.34
2023-02-22T01:30:07.000Z,275.34
2023-02-22T01:31:33.000Z,275.4
2023-02-22T01:33:40.000Z,275.34
2023-02-22T01:35:06.000Z,275.34
2023-02-22T01:37:12.000Z,275.34
2023-02-22T01:38:39.000Z,275.34
2023-02-22T01:40:45.000Z,275.4
2023-02-22T01:42:12.000Z,275.34
2023-02-22T01:44:18.000Z,275.34
2023-02-22T01:45:44.000Z,275.34
2023-02-22T01:47:50.000Z,275.34
2023-02-22T01:49:17.000Z,275.34
2023-02-22T01:51:23.000Z,275.34
2023-02-22T01:52:50.000Z,275.34
2023-02-22T01:54:56.000Z,275.34
2023-02-22T01:56:22.000Z,275.34
2023-02-22T01:58:28.000Z,275.34
2023-02-22T01:59:55.000Z,275.27
2023-02-22T02:02:01.000Z,275.34
2023-02-22T02:03:28.000Z,275.27
2023-02-22T02:05:34.000Z,275.34
2023-02-22T02:08:25.000Z,275.34
2023-02-22T02:09:51.000Z,275.34
2023-02-22T02:11:58.000Z,275.34
2023-02-22T02:13:24.000Z,275.34
2023-02-22T02:15:30.000Z,275.34
2023-02-22T02:16:57.000Z,275.27
2023-02-22T02:19:03.000Z,275.34
2023-02-22T02:20:29.000Z,275.4
2023-02-22T02:22:35.000Z,275.4
2023-02-22T02:24:02.000Z,275.4
2023-02-22T02:26:08.000Z,275.27
2023-02-22T02:27:35.000Z,275.27
2023-02-22T02:29:41.000Z,275.02
2023-02-22T02:31:07.000Z,275.09
2023-02-22T02:33:13.000Z,275.09
2023-02-22T02:34:40.000Z,274.96
2023-02-22T02:36:46.000Z,275.02
2023-02-22T02:38:12.000Z,275.02
2023-02-22T02:40:18.000Z,275.09
2023-02-22T02:41:45.000Z,275.09
2023-02-22T02:43:51.000Z,275.02
2023-02-22T02:46:42.000Z,275.02
2023-02-22T02:48:09.000Z,274.96
2023-02-22T02:50:15.000Z,275.02
2023-02-22T02:51:42.000Z,275.02
2023-02-22T02:53:48.000Z,275.15
2023-02-22T02:55:14.000Z,275.09
2023-02-22T02:57:20.000Z,275.09
2023-02-22T02:58:47.000Z,275.09
2023-02-22T03:00:53.000Z,275.15
2023-02-22T03:02:20.000Z,275.15
2023-02-22T03:04:26.000Z,275.15
2023-02-22T03:05:52.000Z,275.09
2023-02-22T03:07:58.000Z,275.15
2023-02-22T03:09:25.000Z,275.09
2023-02-22T03:11:31.000Z,275.09
2023-02-22T03:12:57.000Z,274.96
2023-02-22T03:15:04.000Z,275.02
2023-02-22T03:16:30.000Z,275.02
2023-02-22T03:18:36.000Z,275.02
2023-02-22T03:20:03.000Z,274.96
2023-02-22T03:22:09.000Z,274.84
2023-02-22T03:25:00.000Z,274.84
2023-02-22T03:26:27.000Z,274.84
2023-02-22T03:28:33.000Z,274.96
2023-02-22T03:29:59.000Z,274.9
2023-02-22T03:32:06.000Z,274.9
2023-02-22T03:33:32.000Z,274.9
2023-02-22T03:35:38.000Z,274.84
2023-02-22T03:37:05.000Z,274.9
2023-02-22T03:39:11.000Z,274.77
2023-02-22T03:40:37.000Z,274.77
2023-02-22T03:42:43.000Z,274.71
2023-02-22T03:44:10.000Z,274.52
2023-02-22T03:46:16.000Z,274.65
2023-02-22T03:47:43.000Z,274.65
2023-02-22T03:49:49.000Z,274.59
2023-02-22T03:51:15.000Z,274.59
2023-02-22T03:53:22.000Z,274.65
2023-02-22T03:54:48.000Z,274.65
2023-02-22T03:56:55.000Z,274.59
2023-02-22T03:58:21.000Z,274.59
2023-02-22T04:00:27.000Z,274.59
2023-02-22T04:03:18.000Z,274.65
2023-02-22T04:04:45.000Z,274.52
2023-02-22T04:06:51.000Z,274.52
2023-02-22T04:08:18.000Z,274.52
2023-02-22T04:10:24.000Z,274.59
2023-02-22T04:11:50.000Z,274.46
2023-02-22T04:13:56.000Z,274.46
2023-02-22T04:15:23.000Z,274.52
2023-02-22T04:17:29.000Z,274.59
2023-02-22T04:18:56.000Z,274.52
2023-02-22T04:21:02.000Z,274.59
2023-02-22T04:22:28.000Z,274.46
2023-02-22T04:24:34.000Z,274.52
2023-02-22T04:26:01.000Z,274.4
2023-02-22T04:28:07.000Z,274.34
2023-02-22T04:29:33.000Z,274.34
2023-02-22T04:31:39.000Z,274.4
2023-02-22T04:33:06.000Z,274.4
2023-02-22T04:35:12.000Z,274.52
2023-02-22T04:36:38.000Z,274.52
2023-02-22T04:38:45.000Z,274.4
2023-02-22T04:41:36.000Z,274.4
2023-02-22T04:43:02.000Z,274.34
2023-02-22T04:45:08.000Z,274.46
2023-02-22T04:46:35.000Z,274.46
2023-02-22T04:48:41.000Z,274.52
2023-02-22T04:50:08.000Z,274.52
2023-02-22T04:52:14.000Z,274.46
2023-02-22T04:53:40.000Z,274.4
2023-02-22T04:55:47.000Z,274.46
2023-02-22T04:57:13.000Z,274.4
2023-02-22T04:59:19.000Z,274.46
2023-02-22T05:00:46.000Z,274.52
2023-02-22T05:02:52.000Z,274.46
2023-02-22T05:04:18.000Z,274.46
2023-02-22T05:06:24.000Z,274.46
2023-02-22T05:07:51.000Z,274.46
2023-02-22T05:09:57.000Z,274.46
2023-02-22T05:11:24.000Z,274.4
2023-02-22T05:13:30.000Z,274.4
2023-02-22T05:14:56.000Z,274.46
2023-02-22T05:17:02.000Z,274.52
2023-02-22T05:19:54.000Z,274.52
2023-02-22T05:21:20.000Z,274.46
2023-02-22T05:23:26.000Z,274.34
2023-02-22T05:24:53.000Z,274.27
2023-02-22T05:26:59.000Z,274.27
2023-02-22T05:28:25.000Z,274.21
2023-02-22T05:30:31.000Z,274.27
2023-02-22T05:31:58.000Z,274.27
2023-02-22T05:34:05.000Z,274.27
2023-02-22T05:35:31.000Z,274.34
2023-02-22T05:37:37.000Z,274.27
2023-02-22T05:39:04.000Z,274.21
2023-02-22T05:41:10.000Z,274.15
2023-02-22T05:42:36.000Z,274.21
2023-02-22T05:44:43.000Z,274.15
2023-02-22T05:46:09.000Z,274.09
2023-02-22T05:48:15.000Z,274.09
2023-02-22T05:49:42.000Z,274.27
2023-02-22T05:51:48.000Z,274.27
2023-02-22T05:53:14.000Z,274.34
2023-02-22T05:55:21.000Z,274.21
2023-02-22T05:58:12.000Z,274.34
2023-02-22T05:59:38.000Z,274.34
2023-02-22T06:01:44.000Z,274.21
2023-02-22T06:03:11.000Z,274.27
2023-02-22T06:07:11.000Z,274.27
2023-02-22T06:10:50.000Z,274.15
2023-02-22T06:11:24.000Z,274.21
2023-02-22T06:12:50.000Z,274.15
2023-02-22T06:14:57.000Z,274.09
2023-02-22T06:16:23.000Z,274.09
2023-02-22T06:18:29.000Z,274.02
2023-02-22T06:19:56.000Z,274.15
2023-02-22T06:22:02.000Z,274.15
2023-02-22T06:23:28.000Z,274.21
2023-02-22T06:25:34.000Z,274.27
2023-02-22T06:27:01.000Z,274.27
2023-02-22T06:29:07.000Z,274.34
2023-02-22T06:30:34.000Z,274.27
2023-02-22T06:32:40.000Z,274.27
2023-02-22T06:34:07.000Z,274.27
2023-02-22T06:36:13.000Z,274.34
2023-02-22T06:38:58.000Z,274.46
2023-02-22T06:40:24.000Z,274.4
2023-02-22T06:42:31.000Z,274.34
2023-02-22T06:43:57.000Z,274.46
2023-02-22T06:46:03.000Z,274.4
2023-02-22T06:47:30.000Z,274.46
2023-02-22T06:49:36.000Z,274.4
2023-02-22T06:51:02.000Z,274.52
2023-02-22T06:53:08.000Z,274.46
2023-02-22T06:54:35.000Z,274.52
2023-02-22T06:56:41.000Z,274.46
2023-02-22T06:58:08.000Z,274.46
2023-02-22T07:00:14.000Z,274.46
2023-02-22T07:01:40.000Z,274.52
2023-02-22T07:03:46.000Z,274.59
2023-02-22T07:05:13.000Z,274.59
2023-02-22T07:07:19.000Z,274.59
2023-02-22T07:08:46.000Z,274.65
2023-02-22T07:10:52.000Z,274.65
2023-02-22T07:12:18.000Z,274.65
2023-02-22T07:14:24.000Z,274.71
2023-02-22T07:17:16.000Z,274.71
2023-02-22T07:18:42.000Z,274.77
2023-02-22T07:20:48.000Z,274.77
2023-02-22T07:22:15.000Z,274.9
2023-02-22T07:24:21.000Z,274.77
2023-02-22T07:25:48.000Z,274.84
2023-02-22T07:27:54.000Z,274.84
2023-02-22T07:29:20.000Z,274.84
2023-02-22T07:31:26.000Z,274.9
2023-02-22T07:32:54.000Z,274.96
2023-02-22T07:35:00.000Z,275.02
2023-02-22T07:36:26.000Z,275.02
2023-02-22T07:38:33.000Z,275.09
2023-02-22T07:39:59.000Z,275.15
2023-02-22T07:42:05.000Z,275.15
2023-02-22T07:43:32.000Z,275.15
2023-02-22T07:45:38.000Z,275.21
2023-02-22T07:47:04.000Z,275.27
2023-02-22T07:49:10.000Z,275.27
2023-02-22T07:50:37.000Z,275.27
2023-02-22T07:52:43.000Z,275.21
2023-02-22T07:55:34.000Z,275.34
2023-02-22T07:57:01.000Z,275.34
2023-02-22T07:59:07.000Z,275.46
2023-02-22T08:00:34.000Z,275.52
2023-02-22T08:02:40.000Z,275.52
2023-02-22T08:04:06.000Z,275.59
2023-02-22T08:06:12.000Z,275.59
2023-02-22T08:07:39.000Z,275.59
2023-02-22T08:09:45.000Z,275.65
2023-02-22T08:11:12.000Z,275.71
2023-02-22T08:13:18.000Z,275.77
2023-02-22T08:14:44.000Z,275.71
2023-02-22T08:16:51.000Z,275.77
2023-02-22T08:18:17.000Z,275.77
2023-02-22T08:20:23.000Z,275.84
2023-02-22T08:21:50.000Z,275.96
2023-02-22T08:23:56.000Z,275.9
2023-02-22T08:25:22.000Z,275.96
2023-02-22T08:27:29.000Z,276.02
2023-02-22T08:28:55.000Z,276.02
2023-02-22T08:31:01.000Z,275.9
2023-02-22T08:33:53.000Z,275.96
2023-02-22T08:35:19.000Z,276.09
2023-02-22T08:37:25.000Z,276.15
2023-02-22T08:38:52.000Z,276.15
2023-02-22T08:40:58.000Z,276.15
2023-02-22T08:42:24.000Z,276.27
2023-02-22T08:44:30.000Z,276.34
2023-02-22T08:45:57.000Z,276.34
2023-02-22T08:48:03.000Z,276.4
2023-02-22T08:49:30.000Z,276.46
2023-02-22T08:51:36.000Z,276.46
2023-02-22T08:53:02.000Z,276.46
2023-02-22T08:55:09.000Z,276.4
2023-02-22T08:56:35.000Z,276.46
2023-02-22T08:58:41.000Z,276.52
2023-02-22T09:00:08.000Z,276.46
2023-02-22T09:02:14.000Z,276.59
2023-02-22T09:03:40.000Z,276.59
2023-02-22T09:05:47.000Z,276.65
2023-02-22T09:07:13.000Z,276.65
2023-02-22T09:09:20.000Z,276.71
2023-02-22T09:12:11.000Z,276.77
2023-02-22T09:13:37.000Z,276.77
2023-02-22T09:15:43.000Z,276.84
2023-02-22T09:17:10.000Z,276.9
2023-02-22T09:19:16.000Z,276.9
2023-02-22T09:20:43.000Z,276.96
2023-02-22T09:22:49.000Z,277.02
2023-02-22T09:24:15.000Z,277.09
2023-02-22T09:26:21.000Z,277.15
2023-02-22T09:27:48.000Z,277.21
2023-02-22T09:29:54.000Z,277.02
2023-02-22T09:31:20.000Z,276.9
2023-02-22T09:33:27.000Z,277.09
2023-02-22T09:34:54.000Z,277.21
2023-02-22T09:37:00.000Z,277.15
2023-02-22T09:38:26.000Z,277.21
2023-02-22T09:40:32.000Z,277.34
2023-02-22T09:41:59.000Z,277.34
2023-02-22T09:44:05.000Z,277.4
2023-02-22T09:45:32.000Z,277.46
2023-02-22T09:47:38.000Z,277.52
2023-02-22T09:50:29.000Z,277.65
2023-02-22T09:51:56.000Z,277.59
2023-02-22T09:54:02.000Z,277.65
2023-02-22T09:55:28.000Z,277.65
2023-02-22T09:57:34.000Z,277.65
2023-02-22T09:59:01.000Z,277.77
2023-02-22T10:01:07.000Z,277.9
2023-02-22T10:02:34.000Z,277.9
2023-02-22T10:04:40.000Z,277.96
2023-02-22T10:06:06.000Z,278.02
2023-02-22T10:08:12.000Z,278.02
2023-02-22T10:09:39.000Z,278.09
2023-02-22T10:11:45.000Z,278.02
2023-02-22T10:13:12.000Z,278.02
2023-02-22T10:15:18.000Z,278.09
2023-02-22T10:16:44.000Z,278.09
2023-02-22T10:18:50.000Z,278.09
2023-02-22T10:20:17.000Z,278.09
2023-02-22T10:22:23.000Z,278.21
2023-02-22T10:23:50.000Z,278.27
2023-02-22T10:25:56.000Z,278.27
2023-02-22T10:28:47.000Z,278.34
2023-02-22T10:30:13.000Z,278.34
2023-02-22T10:32:29.000Z,278.34
2023-02-22T10:33:55.000Z,278.4
2023-02-22T10:36:02.000Z,278.34
2023-02-22T10:37:28.000Z,278.46
2023-02-22T10:39:34.000Z,278.52
2023-02-22T10:41:01.000Z,278.52
2023-02-22T10:43:07.000Z,278.59
2023-02-22T10:44:34.000Z,278.65
2023-02-22T10:46:40.000Z,278.59
2023-02-22T10:48:06.000Z,278.59
2023-02-22T10:50:13.000Z,278.65
2023-02-22T10:51:39.000Z,278.71
2023-02-22T10:53:45.000Z,278.77
2023-02-22T10:55:12.000Z,278.84
2023-02-22T10:57:20.000Z,278.9
2023-02-22T10:58:46.000Z,278.9
2023-02-22T11:00:52.000Z,278.9
2023-02-22T11:02:19.000Z,278.96
2023-02-22T11:04:25.000Z,279.02
2023-02-22T11:07:16.000Z,279.09
2023-02-22T11:08:43.000Z,279.09
2023-02-22T11:10:49.000Z,279.15
2023-02-22T11:12:15.000Z,279.15
2023-02-22T11:14:21.000Z,279.21
2023-02-22T11:15:48.000Z,279.15
2023-02-22T11:17:54.000Z,279.21
2023-02-22T11:19:20.000Z,279.27
2023-02-22T11:21:27.000Z,279.4
2023-02-22T11:22:53.000Z,279.46
2023-02-22T11:24:59.000Z,279.52
2023-02-22T11:26:26.000Z,279.52
2023-02-22T11:28:32.000Z,279.65
2023-02-22T11:29:59.000Z,279.59
2023-02-22T11:32:05.000Z,279.65
2023-02-22T11:33:31.000Z,279.71
2023-02-22T11:35:38.000Z,279.71
2023-02-22T11:37:04.000Z,279.71
2023-02-22T11:39:10.000Z,279.77
2023-02-22T11:40:37.000Z,279.84
2023-02-22T11:42:43.000Z,279.9
2023-02-22T11:45:34.000Z,279.9
2023-02-22T11:47:04.000Z,279.9
2023-02-22T11:49:10.000Z,279.9
2023-02-22T11:50:37.000Z,279.96
2023-02-22T11:52:43.000Z,279.96
2023-02-22T11:54:09.000Z,280.02
2023-02-22T11:56:16.000Z,280.02
2023-02-22T11:57:47.000Z,280.09
2023-02-22T11:59:53.000Z,280.15
2023-02-22T12:01:19.000Z,280.15
2023-02-22T12:03:26.000Z,280.27
2023-02-22T12:04:53.000Z,280.34
2023-02-22T12:07:00.000Z,280.34
2023-02-22T12:08:26.000Z,280.4
2023-02-22T12:10:32.000Z,280.46
2023-02-22T12:11:59.000Z,280.52
2023-02-22T12:14:05.000Z,280.65
2023-02-22T12:15:32.000Z,280.65
2023-02-22T12:17:38.000Z,280.77
2023-02-22T12:19:08.000Z,280.84
2023-02-22T12:21:14.000Z,280.9
2023-02-22T12:24:05.000Z,280.9
2023-02-22T12:25:32.000Z,280.96
2023-02-22T12:27:38.000Z,281.02
2023-02-22T12:29:05.000Z,281.09
2023-02-22T12:31:11.000Z,281.21
2023-02-22T12:32:37.000Z,281.27
2023-02-22T12:34:43.000Z,281.34
2023-02-22T12:36:10.000Z,281.4
2023-02-22T12:38:16.000Z,281.46
2023-02-22T12:39:43.000Z,281.59
2023-02-22T12:41:57.000Z,281.65
2023-02-22T12:43:24.000Z,281.71
2023-02-22T12:45:30.000Z,281.77
2023-02-22T12:46:56.000Z,281.84
2023-02-22T12:49:02.000Z,281.96
2023-02-22T12:50:29.000Z,281.96
2023-02-22T12:52:35.000Z,282.09
2023-02-22T12:54:01.000Z,282.21
2023-02-22T12:56:07.000Z,282.27
2023-02-22T12:57:34.000Z,282.34
2023-02-22T12:59:40.000Z,282.4
2023-02-22T13:02:32.000Z,282.52
2023-02-22T13:03:58.000Z,282.52
2023-02-22T13:06:18.000Z,282.52
2023-02-22T13:07:45.000Z,282.59
2023-02-22T13:09:51.000Z,282.77
2023-02-22T13:11:18.000Z,283.02
2023-02-22T13:13:24.000Z,282.96
2023-02-22T13:14:50.000Z,282.96
2023-02-22T13:16:56.000Z,282.96
2023-02-22T13:18:23.000Z,282.96
2023-02-22T13:20:29.000Z,283.09
2023-02-22T13:21:55.000Z,283.15
2023-02-22T13:24:02.000Z,283.21
2023-02-22T13:25:28.000Z,283.46
2023-02-22T13:27:34.000Z,283.46
2023-02-22T13:29:01.000Z,283.59
2023-02-22T13:31:07.000Z,283.59
2023-02-22T13:32:34.000Z,283.65
2023-02-22T13:34:40.000Z,283.71
2023-02-22T13:36:06.000Z,283.77
2023-02-22T13:38:12.000Z,283.84
2023-02-22T13:41:03.000Z,284.02
2023-02-22T13:42:30.000Z,283.96
2023-02-22T13:44:36.000Z,283.96
2023-02-22T13:46:02.000Z,283.96
2023-02-22T13:48:09.000Z,283.9
2023-02-22T13:49:35.000Z,284.02
2023-02-22T13:51:41.000Z,284.02
2023-02-22T13:53:08.000Z,284.09
2023-02-22T13:55:14.000Z,284.02
2023-02-22T13:56:40.000Z,284.09
2023-02-22T13:58:46.000Z,284.27
2023-02-22T14:00:13.000Z,284.34
2023-02-22T14:02:19.000Z,284.4
2023-02-22T14:03:46.000Z,284.52
2023-02-22T14:05:52.000Z,284.59
2023-02-22T14:07:18.000Z,284.59
2023-02-22T14:09:24.000Z,284.71
2023-02-22T14:10:51.000Z,284.52
2023-02-22T14:12:57.000Z,284.59
2023-02-22T14:14:24.000Z,284.71
2023-02-22T14:16:30.000Z,284.77
2023-02-22T14:19:21.000Z,284.65
2023-02-22T14:20:48.000Z,284.65
2023-02-22T14:22:54.000Z,284.65
2023-02-22T14:24:21.000Z,284.71
2023-02-22T14:26:27.000Z,284.71
2023-02-22T14:27:53.000Z,284.77
2023-02-22T14:30:00.000Z,284.84
2023-02-22T14:31:26.000Z,285.02
2023-02-22T14:33:40.000Z,285.15
2023-02-22T14:35:08.000Z,285.21
2023-02-22T14:37:31.000Z,285.21
2023-02-22T14:38:57.000Z,285.21
2023-02-22T14:41:04.000Z,285.02
2023-02-22T14:42:30.000Z,285.09
2023-02-22T14:44:36.000Z,285.09
2023-02-22T14:46:03.000Z,285.15
2023-02-22T14:48:09.000Z,285.21
2023-02-22T14:49:36.000Z,285.15
2023-02-22T14:51:42.000Z,285.15
2023-02-22T14:53:08.000Z,285.15
2023-02-22T14:55:15.000Z,285.02
2023-02-22T14:58:06.000Z,284.9
2023-02-22T14:59:32.000Z,284.84
2023-02-22T15:01:38.000Z,284.9
2023-02-22T15:03:20.000Z,285.09
2023-02-22T15:05:26.000Z,285.21
2023-02-22T15:06:52.000Z,285.21
2023-02-22T15:08:58.000Z,285.27
2023-02-22T15:10:25.000Z,285.27
2023-02-22T15:12:31.000Z,285.34
2023-02-22T15:13:57.000Z,285.21
2023-02-22T15:16:03.000Z,285.21
2023-02-22T15:17:30.000Z,285.21
2023-02-22T15:19:36.000Z,285.27
2023-02-22T15:21:03.000Z,285.27
2023-02-22T15:23:10.000Z,285.21
2023-02-22T15:24:37.000Z,285.21
2023-02-22T15:26:43.000Z,285.21
2023-02-22T15:28:25.000Z,285.15
2023-02-22T15:30:31.000Z,285.09
2023-02-22T15:31:58.000Z,285.15
2023-02-22T15:34:05.000Z,285.02
2023-02-22T15:36:56.000Z,285.02
2023-02-22T15:38:22.000Z,285.09
2023-02-22T15:40:28.000Z,285.02
2023-02-22T15:41:55.000Z,285.02
2023-02-22T15:44:01.000Z,285.09
2023-02-22T15:45:46.000Z,285.15
2023-02-22T15:47:53.000Z,285.09
2023-02-22T15:49:19.000Z,285.02
2023-02-22T15:51:25.000Z,285.02
2023-02-22T15:52:52.000Z,284.96
2023-02-22T15:54:58.000Z,284.9
2023-02-22T15:56:25.000Z,284.9
2023-02-22T15:58:31.000Z,284.77
2023-02-22T15:59:57.000Z,284.71
2023-02-22T16:02:03.000Z,284.71
2023-02-22T16:03:30.000Z,284.71
2023-02-22T16:05:36.000Z,284.59
2023-02-22T16:07:03.000Z,284.59
2023-02-22T16:09:09.000Z,284.52
2023-02-22T16:10:35.000Z,284.46
2023-02-22T16:12:41.000Z,284.34
2023-02-22T16:15:32.000Z,284.34
2023-02-22T16:16:59.000Z,284.27
2023-02-22T16:19:05.000Z,284.21
2023-02-22T16:20:31.000Z,284.15
2023-02-22T16:22:37.000Z,284.02
2023-02-22T16:24:04.000Z,283.96
2023-02-22T16:26:19.000Z,283.84
2023-02-22T16:27:46.000Z,283.71
2023-02-22T16:29:52.000Z,283.65
2023-02-22T16:31:18.000Z,283.59
2023-02-22T16:33:25.000Z,283.59
2023-02-22T16:34:52.000Z,283.59
2023-02-22T16:36:58.000Z,283.46
2023-02-22T16:38:24.000Z,283.46
2023-02-22T16:40:30.000Z,283.21
2023-02-22T16:41:57.000Z,283.15
2023-02-22T16:44:03.000Z,283.02
2023-02-22T16:45:30.000Z,282.84
2023-02-22T16:47:36.000Z,282.84
2023-02-22T16:49:02.000Z,282.65
2023-02-22T16:51:09.000Z,282.46
2023-02-22T16:54:00.000Z,282.27
2023-02-22T16:55:26.000Z,282.21
2023-02-22T16:57:33.000Z,282.21
2023-02-22T16:58:59.000Z,282.09
2023-02-22T17:01:05.000Z,281.9
2023-02-22T17:02:32.000Z,281.77
2023-02-22T17:04:38.000Z,281.77
2023-02-22T17:06:04.000Z,281.71
2023-02-22T17:08:11.000Z,281.71
2023-02-22T17:09:37.000Z,281.65
2023-02-22T17:11:43.000Z,281.71
2023-02-22T17:13:10.000Z,281.65
2023-02-22T17:15:28.000Z,281.4
2023-02-22T17:16:55.000Z,281.4
2023-02-22T17:19:02.000Z,281.4
2023-02-22T17:20:28.000Z,281.34
2023-02-22T17:22:34.000Z,281.21
2023-02-22T17:24:01.000Z,281.21
2023-02-22T17:26:07.000Z,281.15
2023-02-22T17:27:34.000Z,281.09
2023-02-22T17:29:40.000Z,281.15
2023-02-22T17:32:31.000Z,281.09
2023-02-22T17:33:57.000Z,281.02
2023-02-22T17:36:04.000Z,281.02
2023-02-22T17:37:30.000Z,280.96
2023-02-22T17:39:36.000Z,280.84
2023-02-22T17:41:03.000Z,280.9
2023-02-22T17:43:09.000Z,280.9
2023-02-22T17:44:35.000Z,280.96
2023-02-22T17:46:42.000Z,280.9
2023-02-22T17:48:08.000Z,280.9
2023-02-22T17:50:14.000Z,280.84
2023-02-22T17:51:41.000Z,280.9
2023-02-22T17:53:47.000Z,280.9
2023-02-22T17:55:13.000Z,280.84
2023-02-22T17:57:19.000Z,280.84
2023-02-22T17:58:46.000Z,280.77
2023-02-22T18:00:52.000Z,280.77
2023-02-22T18:02:19.000Z,280.71
2023-02-22T18:04:25.000Z,280.59
2023-02-22T18:05:52.000Z,280.52
2023-02-22T18:08:00.000Z,280.46
2023-02-22T18:10:51.000Z,280.46
2023-02-22T18:12:18.000Z,280.4
2023-02-22T18:14:24.000Z,280.4
2023-02-22T18:15:50.000Z,280.4
2023-02-22T18:17:57.000Z,280.34
2023-02-22T18:19:23.000Z,280.4
2023-02-22T18:21:29.000Z,280.4
2023-02-22T18:22:56.000Z,280.34
2023-02-22T18:25:02.000Z,280.34
2023-02-22T18:26:28.000Z,280.21
2023-02-22T18:28:35.000Z,280.21
2023-02-22T18:30:01.000Z,280.21
2023-02-22T18:32:07.000Z,280.15
2023-02-22T18:33:34.000Z,280.15
2023-02-22T18:35:40.000Z,280.09
2023-02-22T18:37:07.000Z,280.15
2023-02-22T18:39:13.000Z,280.09
2023-02-22T18:40:40.000Z,280.02
2023-02-22T18:42:46.000Z,280.02
2023-02-22T18:44:12.000Z,280.02
2023-02-22T18:46:18.000Z,279.96
2023-02-22T18:49:10.000Z,279.77
2023-02-22T18:50:37.000Z,279.84
2023-02-22T18:52:43.000Z,279.77
2023-02-22T18:54:09.000Z,279.77
2023-02-22T18:56:15.000Z,279.84
2023-02-22T18:57:42.000Z,279.84
2023-02-22T18:59:48.000Z,279.84
2023-02-22T19:01:15.000Z,279.77
2023-02-22T19:03:21.000Z,279.71
2023-02-22T19:04:48.000Z,279.71
2023-02-22T19:06:54.000Z,279.71
2023-02-22T19:08:20.000Z,279.77
2023-02-22T19:10:26.000Z,279.77
2023-02-22T19:11:53.000Z,279.71
2023-02-22T19:13:59.000Z,279.71
2023-02-22T19:15:25.000Z,279.71
2023-02-22T19:17:31.000Z,279.59
2023-02-22T19:18:58.000Z,279.59
2023-02-22T19:21:04.000Z,279.52
2023-02-22T19:22:30.000Z,279.52
2023-02-22T19:24:37.000Z,279.46
2023-02-22T19:27:28.000Z,279.4
2023-02-22T19:28:54.000Z,279.4
2023-02-22T19:31:01.000Z,279.4
2023-02-22T19:32:27.000Z,279.4
2023-02-22T19:34:34.000Z,279.4
2023-02-22T19:36:00.000Z,279.4
2023-02-22T19:38:06.000Z,279.46
2023-02-22T19:39:33.000Z,279.46
2023-02-22T19:41:39.000Z,279.52
2023-02-22T19:43:05.000Z,279.46
2023-02-22T19:45:12.000Z,279.46
2023-02-22T19:46:38.000Z,279.46
2023-02-22T19:48:44.000Z,279.4
2023-02-22T19:50:11.000Z,279.4
2023-02-22T19:52:17.000Z,279.4
2023-02-22T19:53:43.000Z,279.46
2023-02-22T19:55:49.000Z,279.46
2023-02-22T19:57:16.000Z,279.4
2023-02-22T19:59:22.000Z,279.27
2023-02-22T20:00:49.000Z,279.21
2023-02-22T20:02:55.000Z,279.15
2023-02-22T20:05:46.000Z,279.15
2023-02-22T20:07:12.000Z,279.21
2023-02-22T20:09:18.000Z,279.15
2023-02-22T20:10:45.000Z,279.09
2023-02-22T20:12:51.000Z,279.02
2023-02-22T20:14:18.000Z,278.96
2023-02-22T20:16:24.000Z,278.9
2023-02-22T20:17:50.000Z,278.9
2023-02-22T20:19:56.000Z,278.84
2023-02-22T20:21:23.000Z,278.84
2023-02-22T20:23:29.000Z,278.84
2023-02-22T20:24:55.000Z,278.84
2023-02-22T20:27:01.000Z,278.71
2023-02-22T20:28:28.000Z,278.65
2023-02-22T20:30:34.000Z,278.65
2023-02-22T20:32:01.000Z,278.65
2023-02-22T20:34:07.000Z,278.52
2023-02-22T20:35:34.000Z,278.59
2023-02-22T20:37:40.000Z,278.52
2023-02-22T20:39:07.000Z,278.46
2023-02-22T20:41:13.000Z,278.46
2023-02-22T20:44:04.000Z,278.4
2023-02-22T20:45:31.000Z,278.4
2023-02-22T20:47:37.000Z,278.4
2023-02-22T20:49:04.000Z,278.4
2023-02-22T20:51:10.000Z,278.34
2023-02-22T20:52:36.000Z,278.34
2023-02-22T20:54:43.000Z,278.34
2023-02-22T20:56:09.000Z,278.34
2023-02-22T20:58:15.000Z,278.27
2023-02-22T20:59:42.000Z,278.27
2023-02-22T21:01:48.000Z,278.21
2023-02-22T21:03:15.000Z,278.21
2023-02-22T21:05:21.000Z,278.21
2023-02-22T21:06:47.000Z,278.21
2023-02-22T21:08:54.000Z,278.21
2023-02-22T21:10:20.000Z,278.21
2023-02-22T21:12:26.000Z,278.21
2023-02-22T21:13:53.000Z,278.21
2023-02-22T21:15:59.000Z,278.21
2023-02-22T21:17:25.000Z,278.21
2023-02-22T21:19:31.000Z,278.27
2023-02-22T21:22:23.000Z,278.15
2023-02-22T21:23:49.000Z,278.15
2023-02-22T21:25:56.000Z,278.21
2023-02-22T21:27:22.000Z,278.21
2023-02-22T21:29:28.000Z,278.15
2023-02-22T21:30:55.000Z,278.15
2023-02-22T21:33:01.000Z,278.09
2023-02-22T21:34:27.000Z,278.15
2023-02-22T21:36:33.000Z,278.15
2023-02-22T21:38:00.000Z,278.21
2023-02-22T21:40:06.000Z,278.21
2023-02-22T21:41:32.000Z,278.27
2023-02-22T21:43:39.000Z,278.27
2023-02-22T21:45:05.000Z,278.27
2023-02-22T21:47:11.000Z,278.15
2023-02-22T21:48:38.000Z,278.21
2023-02-22T21:50:44.000Z,278.15
2023-02-22T21:52:10.000Z,278.15
2023-02-22T21:54:16.000Z,278.09
2023-02-22T21:55:43.000Z,278.02
2023-02-22T21:57:49.000Z,277.96
2023-02-22T22:00:40.000Z,277.9
2023-02-22T22:02:07.000Z,277.9
2023-02-22T22:04:13.000Z,277.9
2023-02-22T22:05:39.000Z,277.96
2023-02-22T22:07:46.000Z,277.9
2023-02-22T22:09:12.000Z,277.9
2023-02-22T22:11:18.000Z,277.77
2023-02-22T22:12:45.000Z,277.77
2023-02-22T22:14:51.000Z,277.84
2023-02-22T22:16:18.000Z,277.84
2023-02-22T22:18:24.000Z,277.84
2023-02-22T22:19:51.000Z,277.77
2023-02-22T22:21:57.000Z,277.77
2023-02-22T22:23:23.000Z,277.84
2023-02-22T22:25:30.000Z,277.77
2023-02-22T22:26:56.000Z,277.77
2023-02-22T22:29:02.000Z,277.84
2023-02-22T22:30:29.000Z,277.77
2023-02-22T22:32:35.000Z,277.71
2023-02-22T22:34:02.000Z,277.65
2023-02-22T22:36:08.000Z,277.71
2023-02-22T22:38:59.000Z,277.59
2023-02-22T22:40:26.000Z,277.65
2023-02-22T22:42:32.000Z,277.65
2023-02-22T22:43:58.000Z,277.65
2023-02-22T22:46:04.000Z,277.59
2023-02-22T22:47:31.000Z,277.59
2023-02-22T22:49:37.000Z,277.59
2023-02-22T22:51:03.000Z,277.59
2023-02-22T22:53:10.000Z,277.59
2023-02-22T22:54:36.000Z,277.59
2023-02-22T22:56:42.000Z,277.65